Time;durP1;ratioP1;P1;durP2;ratioP2;P2;SDS_P1;SDS_P2;PMS_P1;PMS_P2;Temp;Humidity;BMP_temperature;BMP_pressure;BME280_temperature;BME280_humidity;BME280_pressure;Samples;Min_cycle;Max_cycle;Signal;HPM_P1;HPM_P2
2022/02/13 00:00:53;;;;;;;5.10;3.45;;;;;;;20.38;33.59;101751.03;5032947;28;20398;-67
2022/02/13 00:03:19;;;;;;;4.13;2.97;;;;;;;20.35;33.60;101747.88;5039506;28;20655;-67
2022/02/13 00:05:44;;;;;;;5.97;2.83;;;;;;;20.32;33.56;101749.03;5032592;28;20041;-67
2022/02/13 00:08:10;;;;;;;6.28;3.20;;;;;;;20.30;33.61;101753.66;5036901;28;20056;-67
2022/02/13 00:10:35;;;;;;;5.40;3.13;;;;;;;20.28;33.51;101744.19;5034555;28;20048;-67
2022/02/13 00:13:02;;;;;;;5.82;3.25;;;;;;;20.23;33.72;101752.63;5038652;28;20075;-67
2022/02/13 00:15:28;;;;;;;4.22;2.90;;;;;;;20.19;33.82;101744.19;5035344;28;20033;-67
2022/02/13 00:17:54;;;;;;;5.53;2.90;;;;;;;20.23;33.65;101747.34;5038340;28;20056;-67
2022/02/13 00:20:21;;;;;;;6.25;2.78;;;;;;;20.19;33.64;101728.31;5042243;28;20137;-67
2022/02/13 00:22:48;;;;;;;3.72;2.63;;;;;;;20.15;33.72;101734.91;5035944;28;20037;-67
2022/02/13 00:25:14;;;;;;;6.78;3.53;;;;;;;20.10;33.63;101715.22;5038621;28;20036;-67
2022/02/13 00:27:40;;;;;;;7.80;2.92;;;;;;;20.13;33.70;101715.75;5033953;28;20095;-67
2022/02/13 00:30:09;;;;;;;5.38;2.70;;;;;;;20.12;33.68;101713.25;5040084;28;20045;-67
2022/02/13 00:32:35;;;;;;;5.85;2.80;;;;;;;20.11;33.68;101714.25;5032839;28;20045;-67
2022/02/13 00:35:00;;;;;;;5.20;3.03;;;;;;;20.08;33.70;101704.81;5038691;28;20118;-67
2022/02/13 00:37:26;;;;;;;5.72;3.08;;;;;;;20.08;33.49;101702.16;5037250;28;20035;-67
2022/02/13 00:39:51;;;;;;;6.45;2.97;;;;;;;20.06;33.82;101700.66;5035658;28;20032;-67
2022/02/13 00:42:17;;;;;;;5.03;3.33;;;;;;;20.04;33.85;101702.66;5036675;28;20044;-67
2022/02/13 00:44:42;;;;;;;6.88;3.28;;;;;;;19.97;33.86;101688.41;5039267;28;20075;-67
2022/02/13 00:47:08;;;;;;;4.68;2.90;;;;;;;19.97;33.97;101688.41;5038990;28;20033;-68
2022/02/13 00:49:34;;;;;;;5.38;3.00;;;;;;;19.96;33.76;101684.94;5032122;28;20037;-67
2022/02/13 00:52:00;;;;;;;4.43;2.92;;;;;;;19.90;33.85;101689.03;5041584;28;20041;-67
2022/02/13 00:54:25;;;;;;;4.65;2.78;;;;;;;19.95;33.84;101691.22;5036356;28;20063;-67
2022/02/13 00:56:51;;;;;;;6.68;3.20;;;;;;;19.95;33.87;101685.94;5038869;28;20049;-67
2022/02/13 00:59:16;;;;;;;4.65;3.10;;;;;;;19.90;33.91;101665.25;5034335;28;20060;-67
2022/02/13 01:01:42;;;;;;;4.68;3.20;;;;;;;19.87;33.82;101665.56;5037968;28;20037;-67
2022/02/13 01:04:07;;;;;;;4.10;2.83;;;;;;;19.89;33.84;101671.53;5035633;28;20036;-67
2022/02/13 01:06:33;;;;;;;6.18;3.50;;;;;;;19.86;33.76;101663.91;5032180;28;20512;-67
2022/02/13 01:08:59;;;;;;;4.93;2.85;;;;;;;19.82;34.01;101659.13;5036828;28;20048;-67
2022/02/13 01:11:25;;;;;;;6.32;2.78;;;;;;;19.83;33.80;101660.78;5034188;28;20037;-67
2022/02/13 01:13:51;;;;;;;5.85;3.08;;;;;;;19.82;33.86;101646.72;5039718;28;20047;-67
2022/02/13 01:16:18;;;;;;;5.70;3.22;;;;;;;19.81;33.78;101636.31;5033426;28;20099;-67
2022/02/13 01:18:45;;;;;;;4.90;2.75;;;;;;;19.74;33.94;101635.28;5036468;28;20029;-67
2022/02/13 01:21:14;;;;;;;3.88;2.97;;;;;;;19.76;34.01;101638.63;5030593;28;20102;-67
2022/02/13 01:23:40;;;;;;;6.05;3.40;;;;;;;19.68;33.92;101620.91;5043250;28;20052;-66
2022/02/13 01:26:06;;;;;;;6.13;2.90;;;;;;;19.71;34.02;101640.88;5035637;28;20046;-67
2022/02/13 01:28:32;;;;;;;4.72;3.05;;;;;;;19.64;33.90;101624.03;5038782;28;20494;-67
2022/02/13 01:31:02;;;;;;;4.10;2.83;;;;;;;19.70;34.04;101623.38;5034898;28;20555;-67
2022/02/13 01:33:29;;;;;;;5.32;2.80;;;;;;;19.70;33.79;101620.75;5038229;28;20041;-67
2022/02/13 01:35:54;;;;;;;5.70;3.42;;;;;;;19.68;33.90;101615.63;5036216;28;20041;-67
2022/02/13 01:38:20;;;;;;;5.93;2.83;;;;;;;19.70;33.96;101610.16;5037542;28;20036;-67
2022/02/13 01:40:45;;;;;;;5.75;3.10;;;;;;;19.67;33.94;101606.03;5038257;28;20710;-67
2022/02/13 01:43:11;;;;;;;4.40;2.95;;;;;;;19.64;33.92;101598.44;5035672;28;20258;-67
2022/02/13 01:45:36;;;;;;;5.03;2.97;;;;;;;19.65;33.88;101599.25;5037668;28;20037;-67
2022/02/13 01:48:02;;;;;;;4.53;2.80;;;;;;;19.62;34.04;101589.84;5030364;28;20131;-67
2022/02/13 01:50:29;;;;;;;5.30;3.30;;;;;;;19.64;33.90;101592.31;5035932;28;20895;-67
2022/02/13 01:52:55;;;;;;;4.20;2.90;;;;;;;19.60;34.09;101597.94;5034903;28;20923;-67
2022/02/13 01:55:21;;;;;;;5.55;2.97;;;;;;;19.55;34.04;101583.53;5036551;28;20379;-67
2022/02/13 01:57:46;;;;;;;6.80;3.05;;;;;;;19.53;34.15;101580.19;5034760;28;20032;-67
2022/02/13 02:00:12;;;;;;;4.68;2.90;;;;;;;19.57;34.17;101578.94;5033333;28;20048;-67
2022/02/13 02:02:38;;;;;;;4.22;2.95;;;;;;;19.57;33.94;101573.66;5034297;28;20037;-67
2022/02/13 02:05:03;;;;;;;5.20;2.90;;;;;;;19.54;33.88;101563.38;5034176;28;20041;-67
2022/02/13 02:07:29;;;;;;;5.85;2.85;;;;;;;19.53;33.78;101554.59;5037576;28;20068;-67
2022/02/13 02:09:55;;;;;;;5.88;2.90;;;;;;;19.51;33.94;101574.25;5035860;28;20840;-67
2022/02/13 02:12:20;;;;;;;5.60;2.92;;;;;;;19.44;34.10;101560.03;5036871;28;20047;-67
2022/02/13 02:14:46;;;;;;;4.82;2.90;;;;;;;19.47;34.27;101554.41;5032641;28;20044;-67
2022/02/13 02:17:12;;;;;;;4.35;2.63;;;;;;;19.43;34.20;101546.00;5038478;28;20057;-67
2022/02/13 02:19:38;;;;;;;5.63;3.25;;;;;;;19.46;34.00;101556.22;5036701;28;20041;-67
2022/02/13 02:22:07;;;;;;;4.70;3.08;;;;;;;19.43;34.15;101561.84;5037536;28;20044;-67
2022/02/13 02:24:33;;;;;;;4.97;2.88;;;;;;;19.42;33.94;101554.91;5037276;28;20101;-67
2022/02/13 02:27:00;;;;;;;6.20;3.40;;;;;;;19.36;34.12;101552.88;5039891;28;20073;-68
2022/02/13 02:29:26;;;;;;;3.80;2.70;;;;;;;19.35;34.32;101555.69;5043048;28;20877;-67
2022/02/13 02:31:52;;;;;;;4.80;2.63;;;;;;;19.38;34.17;101548.25;5036215;28;20068;-67
2022/02/13 02:34:18;;;;;;;5.63;3.22;;;;;;;19.39;34.16;101546.44;5040410;28;20051;-67
2022/02/13 02:36:43;;;;;;;4.75;2.80;;;;;;;19.38;34.17;101545.63;5032688;28;20060;-68
2022/02/13 02:39:09;;;;;;;5.07;3.00;;;;;;;19.35;34.18;101547.75;5042687;28;20025;-67
2022/02/13 02:41:34;;;;;;;4.55;3.10;;;;;;;19.31;34.03;101545.44;5038537;28;20048;-67
2022/02/13 02:44:00;;;;;;;4.75;3.08;;;;;;;19.29;34.07;101541.31;5041923;28;20033;-67
2022/02/13 02:46:26;;;;;;;4.55;3.03;;;;;;;19.24;34.29;101523.31;5038340;28;20083;-67
2022/02/13 02:48:51;;;;;;;4.35;2.95;;;;;;;19.32;34.17;101536.53;5039022;28;20102;-67
2022/02/13 02:51:17;;;;;;;5.03;3.13;;;;;;;19.25;34.24;101522.31;5032816;28;20098;-67
2022/02/13 02:53:43;;;;;;;6.18;3.70;;;;;;;19.28;34.15;101518.53;5040742;28;20064;-67
2022/02/13 02:56:10;;;;;;;4.00;3.00;;;;;;;19.23;34.07;101526.09;5040740;28;20035;-67
2022/02/13 02:58:36;;;;;;;5.05;3.40;;;;;;;19.27;34.16;101512.41;5035620;28;20041;-67
2022/02/13 03:01:02;;;;;;;4.50;3.40;;;;;;;19.23;34.20;101510.28;5037187;28;20044;-67
2022/02/13 03:03:28;;;;;;;6.05;3.30;;;;;;;19.21;34.16;101504.28;5036782;28;20473;-67
2022/02/13 03:05:54;;;;;;;5.40;3.00;;;;;;;19.19;34.23;101506.25;5039419;28;20041;-67
2022/02/13 03:08:20;;;;;;;4.72;2.88;;;;;;;19.17;34.14;101490.59;5068464;28;20078;-67
2022/02/13 03:10:46;;;;;;;4.80;2.88;;;;;;;19.17;34.49;101502.97;5039533;28;20065;-67
2022/02/13 03:13:14;;;;;;;4.80;3.05;;;;;;;19.13;34.31;101489.25;5036365;28;20498;-67
2022/02/13 03:15:40;;;;;;;3.35;2.70;;;;;;;19.14;34.24;101496.19;5038502;28;20469;-67
2022/02/13 03:18:06;;;;;;;5.25;3.05;;;;;;;19.13;34.34;101477.88;5039485;28;20497;-67
2022/02/13 03:20:32;;;;;;;6.03;3.00;;;;;;;19.16;34.20;101483.66;5039153;28;20040;-67
2022/02/13 03:22:57;;;;;;;4.70;2.83;;;;;;;19.14;34.20;101474.25;5039219;28;20037;-68
2022/02/13 03:25:23;;;;;;;3.90;2.90;;;;;;;19.12;34.13;101466.50;5037304;28;20463;-68
2022/02/13 03:27:48;;;;;;;4.20;3.03;;;;;;;19.14;34.24;101471.59;5041638;28;20033;-68
2022/02/13 03:30:15;;;;;;;6.35;3.30;;;;;;;19.12;34.15;101471.75;5038643;28;20519;-69
2022/02/13 03:32:40;;;;;;;5.10;3.38;;;;;;;19.10;34.19;101462.34;5040572;28;20123;-68
2022/02/13 03:35:06;;;;;;;4.05;2.88;;;;;;;19.00;34.32;101458.03;5066841;28;20142;-68
2022/02/13 03:37:32;;;;;;;4.88;3.08;;;;;;;19.09;34.30;101455.44;5039666;28;20052;-68
2022/02/13 03:39:57;;;;;;;5.13;3.03;;;;;;;19.05;34.38;101449.66;5036016;28;20045;-68
2022/02/13 03:42:23;;;;;;;5.47;3.00;;;;;;;19.02;34.43;101449.94;5041540;28;20125;-69
2022/02/13 03:44:49;;;;;;;4.90;2.75;;;;;;;19.02;34.41;101457.84;5037148;28;20067;-69
2022/02/13 03:47:15;;;;;;;5.97;3.15;;;;;;;18.96;34.18;101438.22;5038275;28;20044;-68
2022/02/13 03:49:40;;;;;;;6.13;3.75;;;;;;;19.05;34.12;101454.09;5037641;28;20049;-68
2022/02/13 03:52:07;;;;;;;5.38;3.33;;;;;;;19.02;34.23;101452.56;5037797;28;20033;-68
2022/02/13 03:54:32;;;;;;;3.65;2.90;;;;;;;18.98;34.30;101446.78;5037387;28;20040;-68
2022/02/13 03:56:58;;;;;;;5.55;4.25;;;;;;;19.00;34.28;101441.34;5033225;28;21001;-68
2022/02/13 03:59:24;;;;;;;5.93;3.20;;;;;;;18.99;34.30;101443.16;5040734;28;20098;-69
2022/02/13 04:01:49;;;;;;;5.45;3.20;;;;;;;18.98;34.18;101438.88;5034528;28;20091;-68
2022/02/13 04:04:15;;;;;;;6.82;3.17;;;;;;;19.00;33.99;101438.72;5038746;28;20464;-68
2022/02/13 04:06:40;;;;;;;4.97;3.03;;;;;;;18.94;34.18;101431.44;5033454;28;20040;-68
2022/02/13 04:09:06;;;;;;;5.07;3.08;;;;;;;18.98;34.15;101445.97;5036118;28;20688;-68
2022/02/13 04:11:31;;;;;;;4.65;3.00;;;;;;;18.91;34.32;101448.44;5037449;28;20040;-68
2022/02/13 04:13:57;;;;;;;4.95;3.05;;;;;;;18.91;34.26;101445.78;5038258;28;20037;-68
2022/02/13 04:16:22;;;;;;;5.25;3.08;;;;;;;18.94;34.46;101442.81;5037619;28;20593;-68
2022/02/13 04:18:49;;;;;;;4.35;2.83;;;;;;;18.94;34.15;101445.47;5034527;28;20040;-68
2022/02/13 04:21:16;;;;;;;3.45;2.80;;;;;;;18.94;34.33;101447.28;5038112;28;20273;-68
2022/02/13 04:23:42;;;;;;;4.85;3.10;;;;;;;18.89;34.32;101439.84;5034476;28;20068;-68
2022/02/13 04:26:08;;;;;;;4.40;3.03;;;;;;;18.90;34.36;101443.31;5037946;28;20640;-68
2022/02/13 04:28:33;;;;;;;6.03;3.33;;;;;;;18.92;34.28;101443.97;5033588;28;20057;-70
2022/02/13 04:30:59;;;;;;;5.13;2.97;;;;;;;18.89;34.26;101431.94;5039182;28;20036;-68
2022/02/13 04:33:25;;;;;;;5.00;2.83;;;;;;;18.85;34.47;101427.97;5035810;28;20032;-68
2022/02/13 04:35:51;;;;;;;4.95;2.95;;;;;;;18.87;34.42;101422.53;5035324;28;20037;-68
2022/02/13 04:38:16;;;;;;;4.70;2.88;;;;;;;18.85;34.36;101420.03;5035927;28;20041;-68
2022/02/13 04:40:42;;;;;;;3.72;2.78;;;;;;;18.86;34.30;101419.06;5038518;28;20305;-68
2022/02/13 04:43:08;;;;;;;3.92;2.88;;;;;;;18.84;34.52;101415.72;5037320;28;20083;-68
2022/02/13 04:45:33;;;;;;;3.88;2.85;;;;;;;18.73;34.31;101397.56;5033609;28;20037;-68
2022/02/13 04:47:59;;;;;;;4.72;2.88;;;;;;;18.86;34.36;101416.41;5038226;28;20045;-69
2022/02/13 04:50:26;;;;;;;3.85;2.70;;;;;;;18.84;34.28;101417.53;5033923;28;20053;-68
2022/02/13 04:52:53;;;;;;;4.90;3.00;;;;;;;18.81;34.56;101417.84;5041718;28;20045;-68
2022/02/13 04:55:20;;;;;;;5.25;3.28;;;;;;;18.81;34.22;101420.50;5035295;28;20048;-68
2022/02/13 04:57:47;;;;;;;4.88;3.03;;;;;;;18.81;34.26;101416.03;5039058;28;20027;-68
2022/02/13 05:00:14;;;;;;;5.50;3.13;;;;;;;18.82;34.45;101407.13;5036503;28;20071;-68
2022/02/13 05:02:40;;;;;;;5.47;3.30;;;;;;;18.76;34.45;101399.88;5036895;28;20049;-68
2022/02/13 05:05:07;;;;;;;4.20;2.88;;;;;;;18.73;34.38;101397.56;5037441;28;20665;-68
2022/02/13 05:07:33;;;;;;;3.75;3.05;;;;;;;18.75;34.50;101400.03;5064028;28;20040;-68
2022/02/13 05:09:59;;;;;;;5.28;3.00;;;;;;;18.85;34.48;101395.44;5035431;28;20041;-68
2022/02/13 05:12:24;;;;;;;3.80;2.80;;;;;;;19.15;34.37;101392.25;5035134;28;20063;-68
2022/02/13 05:14:50;;;;;;;5.60;3.00;;;;;;;19.37;34.18;101387.31;5035541;28;20048;-68
2022/02/13 05:17:16;;;;;;;5.68;3.28;;;;;;;19.74;33.99;101392.16;5033259;28;20085;-68
2022/02/13 05:19:42;;;;;;;4.28;2.78;;;;;;;20.05;33.30;101373.81;5039671;28;20075;-68
2022/02/13 05:22:07;;;;;;;3.10;2.65;;;;;;;20.32;32.88;101362.88;5032977;28;20045;-68
2022/02/13 05:24:36;;;;;;;5.15;2.95;;;;;;;20.70;32.56;101371.84;5037946;28;20044;-68
2022/02/13 05:27:04;;;;;;;3.95;3.10;;;;;;;20.86;32.45;101380.72;5037713;28;20127;-68
2022/02/13 05:29:30;;;;;;;4.80;3.17;;;;;;;21.04;32.10;101365.38;5036279;28;20102;-68
2022/02/13 05:31:56;;;;;;;4.22;3.00;;;;;;;21.23;31.88;101361.47;5035363;28;20491;-68
2022/02/13 05:34:22;;;;;;;4.32;3.08;;;;;;;21.24;31.97;101369.25;5050917;28;20041;-68
2022/02/13 05:36:47;;;;;;;4.78;3.00;;;;;;;21.08;32.15;101354.25;5037283;28;20155;-68
2022/02/13 05:39:13;;;;;;;3.90;3.13;;;;;;;20.95;32.30;101354.00;5034066;28;20037;-68
2022/02/13 05:41:38;;;;;;;5.72;3.30;;;;;;;20.81;32.47;101347.63;5037407;28;20036;-68
2022/02/13 05:44:04;;;;;;;5.00;2.85;;;;;;;20.64;32.77;101339.94;5032455;28;20379;-68
2022/02/13 05:46:30;;;;;;;5.13;2.83;;;;;;;20.67;32.87;101342.25;5024708;28;20927;-68
2022/02/13 05:48:57;;;;;;;3.85;2.70;;;;;;;20.69;32.97;101342.91;5035619;28;20072;-68
2022/02/13 05:51:23;;;;;;;4.13;2.80;;;;;;;20.83;32.71;101331.59;5040809;28;20813;-68
2022/02/13 05:53:50;;;;;;;3.10;2.72;;;;;;;20.98;32.67;101321.88;5038013;28;20052;-68
2022/02/13 05:56:16;;;;;;;4.22;2.72;;;;;;;21.27;32.18;101325.69;5038988;28;20085;-68
2022/02/13 05:58:42;;;;;;;5.18;2.75;;;;;;;21.59;31.98;101321.97;5041109;28;20030;-68
2022/02/13 06:01:09;;;;;;;3.92;2.85;;;;;;;21.76;31.55;101323.47;5035400;28;20037;-68
2022/02/13 06:03:35;;;;;;;5.05;2.60;;;;;;;21.70;31.52;101319.69;5042510;28;20040;-68
2022/02/13 06:06:01;;;;;;;4.68;2.80;;;;;;;21.55;31.83;101318.03;5036502;28;20082;-68
2022/02/13 06:08:28;;;;;;;6.85;2.80;;;;;;;21.40;32.09;101339.19;5037832;28;20775;-68
2022/02/13 06:10:54;;;;;;;4.32;2.97;;;;;;;21.26;32.35;101346.06;5035922;28;20470;-68
2022/02/13 06:13:19;;;;;;;4.78;2.95;;;;;;;21.21;32.32;101336.97;5036992;28;20147;-68
2022/02/13 06:15:45;;;;;;;4.88;2.95;;;;;;;21.02;32.56;101331.16;5067713;28;20768;-68
2022/02/13 06:18:10;;;;;;;4.70;3.33;;;;;;;20.94;32.75;101335.66;5039878;28;20037;-68
2022/02/13 06:20:36;;;;;;;4.55;2.90;;;;;;;20.83;32.85;101333.41;5038407;28;20040;-68
2022/02/13 06:23:02;;;;;;;4.15;2.60;;;;;;;20.85;32.72;101328.78;5041421;28;20043;-68
2022/02/13 06:25:28;;;;;;;4.32;2.75;;;;;;;20.85;32.75;101311.06;5038304;28;20037;-68
2022/02/13 06:27:53;;;;;;;4.65;3.10;;;;;;;20.93;32.74;101315.47;5038030;28;20041;-68
2022/02/13 06:30:19;;;;;;;4.53;2.90;;;;;;;20.80;32.73;101306.28;5040241;28;20394;-68
2022/02/13 06:32:44;;;;;;;4.30;3.15;;;;;;;20.77;32.78;101309.28;5053517;28;20033;-70
2022/02/13 06:35:10;;;;;;;6.85;3.17;;;;;;;20.77;32.79;101296.03;5076669;28;20056;-68
2022/02/13 06:37:38;;;;;;;5.32;2.90;;;;;;;20.75;32.87;101308.63;5037797;28;20067;-68
2022/02/13 06:40:04;;;;;;;4.47;2.90;;;;;;;20.93;32.78;101305.72;5041251;28;20045;-68
2022/02/13 06:42:30;;;;;;;3.90;2.67;;;;;;;21.27;32.22;101304.50;5041715;28;20036;-68
2022/02/13 06:44:55;;;;;;;4.15;2.70;;;;;;;21.51;31.78;101299.00;5041046;28;20506;-68
2022/02/13 06:47:21;;;;;;;4.03;2.80;;;;;;;21.40;32.09;101302.09;5036172;28;20406;-68
2022/02/13 06:49:47;;;;;;;3.47;2.70;;;;;;;21.32;32.12;101289.72;5038077;28;20044;-68
2022/02/13 06:52:12;;;;;;;4.03;2.47;;;;;;;21.32;32.10;101283.59;5043934;28;20041;-68
2022/02/13 06:54:38;;;;;;;5.18;3.08;;;;;;;21.19;32.33;101278.06;5040117;28;20041;-68
2022/02/13 06:57:03;;;;;;;4.10;2.88;;;;;;;21.09;32.50;101278.28;5040268;28;20048;-68
2022/02/13 06:59:29;;;;;;;3.58;2.53;;;;;;;21.07;32.31;101275.81;5037244;28;21688;-68
2022/02/13 07:01:55;;;;;;;3.15;2.70;;;;;;;21.00;32.69;101279.34;5038773;28;20044;-68
2022/02/13 07:04:20;;;;;;;3.97;2.70;;;;;;;20.98;32.63;101271.56;5039139;28;20090;-68
2022/02/13 07:06:46;;;;;;;3.45;2.85;;;;;;;21.01;32.46;101265.94;5036935;28;20038;-68
2022/02/13 07:09:11;;;;;;;5.00;3.13;;;;;;;21.02;32.31;101258.84;5036230;28;20037;-68
2022/02/13 07:11:37;;;;;;;3.85;2.63;;;;;;;20.97;32.62;101259.34;5040442;28;20048;-68
2022/02/13 07:14:02;;;;;;;3.97;2.60;;;;;;;20.89;32.66;101262.06;5038434;28;20446;-68
2022/02/13 07:16:29;;;;;;;4.70;3.10;;;;;;;20.85;32.52;101254.66;5036631;28;20063;-68
2022/02/13 07:18:56;;;;;;;3.20;2.63;;;;;;;20.77;32.67;101251.03;5039686;28;20041;-68
2022/02/13 07:21:21;;;;;;;5.30;2.92;;;;;;;20.72;32.89;101248.09;5031977;28;20735;-68
2022/02/13 07:23:47;;;;;;;4.30;3.15;;;;;;;20.68;33.13;101253.94;5039261;28;20041;-68
2022/02/13 07:26:13;;;;;;;3.70;2.72;;;;;;;20.64;32.87;101239.38;5037083;28;20037;-70
2022/02/13 07:31:22;;;;;;;4.65;2.85;;;;;;;20.82;32.79;101237.28;5032500;28;20040;-69
2022/02/13 07:33:48;;;;;;;4.53;2.90;;;;;;;21.02;32.48;101238.47;5041585;28;20434;-68
2022/02/13 07:36:14;;;;;;;3.58;2.58;;;;;;;21.11;32.37;101229.44;5036403;28;20461;-68
2022/02/13 07:38:39;;;;;;;5.60;2.50;;;;;;;21.17;32.29;101219.97;5040754;28;20037;-68
2022/02/13 07:41:06;;;;;;;3.80;2.50;;;;;;;21.18;32.22;101228.72;5033988;28;20048;-67
2022/02/13 07:43:33;;;;;;;5.95;3.13;;;;;;;21.07;32.42;101227.34;5034615;28;20042;-68
2022/02/13 07:45:59;;;;;;;5.32;2.92;;;;;;;21.07;32.37;101237.94;5030884;28;20434;-66
2022/02/13 07:48:25;;;;;;;4.15;2.90;;;;;;;20.94;32.58;101240.34;5037699;28;20045;-66
2022/02/13 07:50:50;;;;;;;4.13;2.65;;;;;;;20.91;32.68;101238.06;5031810;28;20491;-67
2022/02/13 07:53:17;;;;;;;4.38;2.80;;;;;;;20.93;32.39;101231.59;5040535;28;20053;-66
2022/02/13 07:55:43;;;;;;;4.03;2.78;;;;;;;20.99;32.38;101230.84;5035011;28;20487;-67
2022/02/13 07:58:08;;;;;;;3.55;2.50;;;;;;;20.98;32.32;101229.22;5039195;28;20042;-67
2022/02/13 08:00:34;;;;;;;5.13;2.90;;;;;;;20.98;32.55;101234.50;5034529;28;20033;-66
2022/02/13 08:02:59;;;;;;;3.22;2.50;;;;;;;20.90;32.59;101220.53;5037325;28;20033;-67
2022/02/13 08:05:25;;;;;;;3.85;2.65;;;;;;;20.81;32.70;101235.63;5031484;28;20048;-66
2022/02/13 08:07:51;;;;;;;5.30;2.80;;;;;;;20.77;32.75;101237.00;5040771;28;20048;-67
2022/02/13 08:10:18;;;;;;;4.75;2.80;;;;;;;20.76;32.75;101238.00;5036527;28;20033;-67
2022/02/13 08:12:45;;;;;;;4.90;2.75;;;;;;;20.77;32.68;101237.81;5039860;28;20367;-66
2022/02/13 08:15:10;;;;;;;5.35;2.80;;;;;;;20.90;32.33;101218.69;5034469;28;20045;-67
2022/02/13 08:17:36;;;;;;;3.30;2.53;;;;;;;20.83;32.59;101211.66;5040341;28;20134;-66
2022/02/13 08:20:07;;;;;;;6.93;2.72;;;;;;;21.08;32.29;101219.22;5035388;28;20040;-66
2022/02/13 08:22:37;;;;;;;3.53;2.50;;;;;;;21.13;32.26;101219.50;5038362;28;20037;-66
2022/02/13 08:25:03;;;;;;;3.53;2.60;;;;;;;21.09;32.39;101217.41;5034549;28;20045;-67
2022/02/13 08:27:29;;;;;;;4.35;2.70;;;;;;;21.04;32.36;101209.16;5036453;28;22448;-66
2022/02/13 08:29:55;;;;;;;4.63;2.92;;;;;;;20.93;32.37;101205.09;5036762;28;20486;-67
2022/02/13 08:32:23;;;;;;;3.53;2.63;;;;;;;20.97;32.55;101200.28;5039616;28;20094;-66
2022/02/13 08:34:49;;;;;;;3.00;2.30;;;;;;;20.91;32.50;101198.34;5038191;28;20518;-65
2022/02/13 08:37:16;;;;;;;4.30;2.70;;;;;;;21.08;31.95;101215.75;5036038;28;20186;-68
2022/02/13 08:39:41;;;;;;;4.93;2.95;;;;;;;21.09;32.15;101212.91;5036258;28;20210;-65
2022/02/13 08:42:07;;;;;;;4.18;2.53;;;;;;;21.04;32.30;101219.75;5035510;28;20117;-65
2022/02/13 08:44:33;;;;;;;3.72;2.63;;;;;;;21.00;32.18;101213.97;5037910;28;20653;-65
2022/02/13 08:46:58;;;;;;;4.97;2.78;;;;;;;20.97;32.50;101210.88;5036472;28;20044;-65
2022/02/13 08:49:23;;;;;;;4.40;2.55;;;;;;;20.94;32.41;101212.03;5036384;28;20049;-65
2022/02/13 08:51:49;;;;;;;2.90;2.28;;;;;;;20.86;32.42;101203.34;5035734;28;20041;-67
2022/02/13 08:54:15;;;;;;;3.50;2.60;;;;;;;20.81;32.64;101204.69;5040038;28;20091;-68
2022/02/13 08:56:40;;;;;;;3.60;2.40;;;;;;;20.78;32.58;101188.34;5034922;28;20049;-67
2022/02/13 08:59:06;;;;;;;3.58;2.35;;;;;;;21.09;32.19;101215.56;5037906;28;20037;-65
2022/02/13 09:01:31;;;;;;;5.03;3.05;;;;;;;21.04;32.42;101206.53;5034718;28;20045;-67
2022/02/13 09:03:57;;;;;;;4.05;2.55;;;;;;;21.04;32.23;101206.53;5036334;28;20048;-68
2022/02/13 09:06:22;;;;;;;3.17;2.60;;;;;;;21.03;32.23;101205.69;5034474;28;20040;-67
2022/02/13 09:08:48;;;;;;;3.42;2.53;;;;;;;20.96;32.29;101178.28;5039995;28;20666;-68
2022/02/13 09:11:14;;;;;;;5.75;2.78;;;;;;;21.00;32.46;101199.91;5034200;28;20033;-68
2022/02/13 09:13:39;;;;;;;4.00;2.75;;;;;;;21.06;32.30;101180.69;5038887;28;20144;-69
2022/02/13 09:16:05;;;;;;;4.40;2.50;;;;;;;20.98;32.17;101186.84;5036427;28;20053;-69
2022/02/13 09:18:31;;;;;;;4.07;2.50;;;;;;;20.96;32.32;101177.44;5038302;28;20048;-69
2022/02/13 09:20:56;;;;;;;3.05;2.50;;;;;;;20.89;32.60;101180.00;5035804;28;20159;-68
2022/02/13 09:23:22;;;;;;;3.80;3.00;;;;;;;20.85;32.52;101175.25;5038335;28;20033;-68
2022/02/13 09:25:49;;;;;;;4.55;2.63;;;;;;;20.78;32.78;101177.75;5034567;28;20682;-68
2022/02/13 09:28:15;;;;;;;4.18;2.55;;;;;;;20.75;32.67;101168.34;5036817;28;20520;-68
2022/02/13 09:30:43;;;;;;;4.40;2.65;;;;;;;20.81;32.57;101148.28;5035875;28;20491;-68
2022/02/13 09:33:09;;;;;;;4.47;2.83;;;;;;;21.03;32.47;101171.28;5037236;28;20037;-69
2022/02/13 09:35:34;;;;;;;3.80;3.03;;;;;;;20.99;32.59;101164.66;5065059;28;20051;-69
2022/02/13 09:38:00;;;;;;;5.65;2.75;;;;;;;20.97;32.73;101166.69;5036759;28;20036;-67
2022/02/13 09:40:32;;;;;;;5.80;2.60;;;;;;;21.06;32.75;101162.16;5031585;28;20605;-68
2022/02/13 09:43:03;;;;;;;4.57;2.75;;;;;;;21.04;32.87;101151.75;5044113;28;20021;-68
2022/02/13 09:45:31;;;;;;;3.65;2.60;;;;;;;21.04;32.97;101151.75;5030669;28;20068;-68
2022/02/13 09:48:03;;;;;;;3.22;2.53;;;;;;;21.03;32.76;101158.03;5040100;28;20037;-67
2022/02/13 09:50:30;;;;;;;3.58;2.30;;;;;;;21.09;32.76;101157.31;5036116;28;20029;-67
2022/02/13 09:52:56;;;;;;;3.17;2.30;;;;;;;21.11;32.73;101138.59;5039054;28;20033;-68
2022/02/13 09:55:26;;;;;;;3.50;2.40;;;;;;;21.12;32.70;101143.72;5035281;28;20033;-68
2022/02/13 09:58:04;;;;;;;4.77;3.23;;;;;;;21.05;32.96;101145.44;4973629;28;20125;-65
2022/02/13 10:00:48;;;;;;;4.47;2.90;;;;;;;21.51;32.76;101147.97;5038633;28;20040;-64
2022/02/13 10:03:32;;;;;;;4.47;2.63;;;;;;;21.57;32.70;101136.66;5035412;28;20120;-66
2022/02/13 10:06:19;;;;;;;5.05;2.55;;;;;;;21.68;32.56;101140.66;5033534;28;21205;-64
2022/02/13 10:08:48;;;;;;;4.63;2.47;;;;;;;21.62;32.92;101134.25;5035853;28;20168;-64
2022/02/13 10:11:17;;;;;;;4.82;2.60;;;;;;;21.53;33.14;101126.56;5035455;28;20079;-64
2022/02/13 10:14:12;;;;;;;3.08;2.47;;;;;;;21.50;33.33;101142.84;5004915;28;20067;-66
2022/02/13 10:16:40;;;;;;;3.45;2.58;;;;;;;21.45;33.21;101130.16;5033459;28;20059;-66
2022/02/13 10:19:11;;;;;;;2.97;2.38;;;;;;;21.48;33.47;101134.25;5003098;28;20055;-65
2022/02/13 10:21:42;;;;;;;4.05;2.50;;;;;;;21.45;33.68;101132.81;5034380;28;20118;-68
2022/02/13 10:24:14;;;;;;;3.17;2.45;;;;;;;21.44;33.78;101125.88;5000103;28;20034;-64
2022/02/13 10:26:40;;;;;;;3.83;2.63;;;;;;;21.45;33.75;101126.69;5034099;28;20057;-67
2022/02/13 10:29:06;;;;;;;3.30;2.60;;;;;;;21.50;33.78;101111.06;5000846;28;20065;-64
2022/02/13 10:31:32;;;;;;;4.30;2.60;;;;;;;21.42;33.79;101114.63;5031732;28;20140;-61
2022/02/13 10:34:01;;;;;;;4.20;2.45;;;;;;;21.53;33.74;101105.38;5002205;28;20067;-65
2022/02/13 10:36:28;;;;;;;4.47;2.33;;;;;;;21.63;33.52;101109.41;5039477;28;20033;-67
2022/02/13 10:38:54;;;;;;;2.83;2.45;;;;;;;21.63;33.74;101097.97;5005146;28;20518;-67
2022/02/13 10:41:27;;;;;;;4.13;2.50;;;;;;;21.49;33.94;101093.50;5037956;28;20033;-63
2022/02/13 10:43:59;;;;;;;4.43;2.70;;;;;;;21.40;33.94;101092.81;5006000;28;20049;-63
2022/02/13 10:46:32;;;;;;;3.28;2.38;;;;;;;21.25;34.21;101095.44;5041529;28;20159;-63
2022/02/13 10:48:58;;;;;;;3.17;2.40;;;;;;;21.15;34.30;101088.72;5004801;28;20033;-63
2022/02/13 10:51:24;;;;;;;3.65;2.67;;;;;;;21.20;34.00;101083.72;5034146;28;20059;-65
2022/02/13 10:53:50;;;;;;;5.00;2.47;;;;;;;21.46;33.63;101084.09;5019634;28;20044;-67
2022/02/13 10:56:17;;;;;;;4.50;2.58;;;;;;;21.53;33.63;101066.44;5044571;28;20036;-69
2022/02/13 10:58:42;;;;;;;3.63;2.40;;;;;;;21.53;33.72;101066.44;4998083;28;20584;-70
2022/02/13 11:01:08;;;;;;;4.60;2.72;;;;;;;21.57;33.79;101073.06;5038376;28;20045;-67
2022/02/13 11:03:35;;;;;;;3.20;2.45;;;;;;;21.66;33.51;101069.28;4999735;28;20028;-70
2022/02/13 11:06:04;;;;;;;4.60;2.80;;;;;;;21.61;33.53;101053.13;5033698;28;20754;-70
2022/02/13 11:08:42;;;;;;;3.58;2.20;;;;;;;21.66;33.47;101063.16;5000243;28;20029;-68
2022/02/13 11:11:11;;;;;;;4.25;2.70;;;;;;;21.67;33.78;101060.31;5038796;28;20086;-68
2022/02/13 11:13:37;;;;;;;5.22;2.50;;;;;;;21.63;33.76;101060.88;4995062;28;20045;-67
2022/02/13 11:16:33;;;;;;;5.30;2.45;;;;;;;21.67;33.91;101070.09;5033755;28;20513;-71
2022/02/13 11:19:07;;;;;;;3.10;2.60;;;;;;;21.70;33.77;101059.94;5004884;28;20807;-68
2022/02/13 11:21:34;;;;;;;4.43;2.28;;;;;;;21.67;33.69;101070.09;5028611;28;20087;-69
2022/02/13 11:24:02;;;;;;;4.32;2.30;;;;;;;21.50;34.11;101058.06;5000276;28;20033;-63